createdAt,value
2022-10-22T00:01:28.500Z,17.00
2022-10-22T00:03:55.600Z,17.00
2022-10-22T00:06:22.438Z,17.00
2022-10-22T00:08:49.305Z,17.00
2022-10-22T00:11:18.228Z,17.00
2022-10-22T00:16:32.095Z,17.00
2022-10-22T00:18:58.876Z,16.90
2022-10-22T00:21:29.031Z,16.90
2022-10-22T00:23:56.455Z,16.90
2022-10-22T00:26:23.651Z,16.90
2022-10-22T00:28:50.477Z,16.90
2022-10-22T00:31:19.227Z,16.90
2022-10-22T00:33:49.547Z,16.90
2022-10-22T00:36:16.913Z,16.90
2022-10-22T00:38:43.787Z,16.90
2022-10-22T00:41:10.635Z,16.90
2022-10-22T00:43:59.989Z,16.90
2022-10-22T00:46:27.272Z,16.90
2022-10-22T00:48:56.304Z,16.90
2022-10-22T00:51:28.996Z,16.90
2022-10-22T00:54:00.356Z,16.90
2022-10-22T00:56:27.300Z,16.90
2022-10-22T00:58:57.383Z,16.90
2022-10-22T01:01:30.260Z,16.90
2022-10-22T01:03:57.365Z,16.90
2022-10-22T01:06:26.215Z,16.90
2022-10-22T01:09:06.342Z,16.90
2022-10-22T01:11:59.482Z,17.00
2022-10-22T01:15:13.725Z,17.00
2022-10-22T01:17:49.365Z,17.00
2022-10-22T01:20:16.109Z,17.00
2022-10-22T01:22:52.924Z,17.00
2022-10-22T01:25:31.741Z,17.00
2022-10-22T01:28:13.275Z,17.00
2022-10-22T01:30:41.514Z,17.00
2022-10-22T01:33:12.800Z,17.00
2022-10-22T01:35:43.015Z,17.00
2022-10-22T01:38:14.192Z,17.00
2022-10-22T01:40:42.839Z,17.00
2022-10-22T01:43:11.166Z,17.00
2022-10-22T01:45:45.784Z,17.00
2022-10-22T01:48:35.766Z,17.00
2022-10-22T01:51:05.610Z,17.00
2022-10-22T01:53:54.045Z,17.00
2022-10-22T01:57:05.643Z,17.00
2022-10-22T01:59:47.411Z,17.00
2022-10-22T02:05:43.150Z,17.00
2022-10-22T02:08:13.853Z,17.00
2022-10-22T02:10:44.635Z,17.00
2022-10-22T02:13:16.929Z,17.00
2022-10-22T02:15:45.744Z,17.00
2022-10-22T02:18:14.039Z,17.10
2022-10-22T02:20:42.524Z,17.00
2022-10-22T02:23:11.272Z,17.10
2022-10-22T02:25:45.707Z,17.10
2022-10-22T02:28:27.176Z,17.00
2022-10-22T02:30:59.030Z,17.00
2022-10-22T02:33:34.588Z,17.00
2022-10-22T02:36:03.291Z,17.00
2022-10-22T02:38:32.054Z,17.00
2022-10-22T02:40:59.393Z,17.00
2022-10-22T02:43:26.264Z,17.00
2022-10-22T02:45:53.107Z,17.00
2022-10-22T02:50:47.765Z,17.00
2022-10-22T02:53:14.581Z,17.00
2022-10-22T02:55:41.385Z,17.00
2022-10-22T02:58:08.172Z,17.00
2022-10-22T03:00:35.051Z,17.00
2022-10-22T03:03:01.916Z,17.00
2022-10-22T03:05:28.722Z,16.90
2022-10-22T03:07:55.550Z,17.00
2022-10-22T03:10:22.349Z,17.00
2022-10-22T03:12:49.244Z,17.00
2022-10-22T03:15:16.260Z,17.00
2022-10-22T03:17:43.396Z,16.90
2022-10-22T03:20:10.481Z,16.90
2022-10-22T03:22:40.401Z,16.90
2022-10-22T03:25:12.344Z,16.90
2022-10-22T03:27:40.440Z,16.90
2022-10-22T03:30:08.779Z,16.90
2022-10-22T03:32:35.595Z,16.90
2022-10-22T03:35:02.448Z,16.90
2022-10-22T03:37:30.297Z,16.90
2022-10-22T03:39:57.271Z,16.90
2022-10-22T03:42:24.649Z,16.90
2022-10-22T03:44:51.765Z,16.80
2022-10-22T03:47:18.897Z,16.90
2022-10-22T03:49:45.740Z,16.90
2022-10-22T03:52:14.520Z,16.90
2022-10-22T03:54:42.396Z,16.90
2022-10-22T03:57:10.373Z,16.90
2022-10-22T03:59:45.266Z,16.80
2022-10-22T04:02:13.606Z,16.80
2022-10-22T04:04:40.450Z,16.80
2022-10-22T04:07:08.160Z,16.80
2022-10-22T04:09:35.531Z,16.80
2022-10-22T04:12:02.690Z,16.80
2022-10-22T04:14:29.462Z,16.80
2022-10-22T04:16:56.265Z,16.80
2022-10-22T04:19:23.164Z,16.80
2022-10-22T04:21:50.126Z,16.80
2022-10-22T04:24:16.967Z,16.80
2022-10-22T04:26:43.996Z,16.80
2022-10-22T04:29:13.610Z,16.80
2022-10-22T04:31:43.127Z,16.80
2022-10-22T04:34:10.034Z,16.80
2022-10-22T04:36:36.870Z,16.80
2022-10-22T04:39:05.772Z,16.80
2022-10-22T04:41:35.144Z,16.80
2022-10-22T04:44:02.690Z,16.80
2022-10-22T04:46:33.717Z,16.80
2022-10-22T04:49:00.745Z,16.80
2022-10-22T04:51:28.075Z,16.80
2022-10-22T04:53:55.179Z,16.80
2022-10-22T04:56:25.041Z,16.80
2022-10-22T04:58:57.861Z,16.80
2022-10-22T05:01:27.752Z,16.80
2022-10-22T05:03:57.394Z,16.80
2022-10-22T05:06:24.911Z,16.80
2022-10-22T05:08:58.140Z,16.80
2022-10-22T05:11:28.377Z,16.80
2022-10-22T05:13:59.508Z,16.80
2022-10-22T05:16:28.150Z,16.80
2022-10-22T05:18:55.192Z,16.80
2022-10-22T05:21:22.583Z,16.80
2022-10-22T05:23:50.532Z,16.80
2022-10-22T05:26:21.000Z,16.80
2022-10-22T05:28:49.235Z,16.80
2022-10-22T05:31:16.916Z,16.80
2022-10-22T05:33:44.598Z,16.80
2022-10-22T05:36:14.871Z,16.80
2022-10-22T05:38:41.719Z,16.80
2022-10-22T05:41:14.692Z,16.80
2022-10-22T05:43:41.550Z,16.80
2022-10-22T05:46:21.985Z,16.80
2022-10-22T05:48:54.519Z,16.80
2022-10-22T05:51:21.870Z,16.80
2022-10-22T05:54:02.771Z,16.80
2022-10-22T05:56:32.100Z,16.80
2022-10-22T05:58:59.452Z,16.80
2022-10-22T06:01:29.370Z,16.80
2022-10-22T06:04:01.276Z,16.80
2022-10-22T06:06:42.747Z,16.80
2022-10-22T06:09:29.123Z,16.80
2022-10-22T06:11:56.808Z,16.80
2022-10-22T06:14:24.695Z,16.80
2022-10-22T06:16:51.909Z,16.90
2022-10-22T06:19:20.913Z,16.90
2022-10-22T06:21:48.654Z,16.80
2022-10-22T06:24:15.820Z,16.80
2022-10-22T06:26:42.692Z,16.80
2022-10-22T06:29:10.029Z,16.90
2022-10-22T06:31:37.132Z,16.90
2022-10-22T06:34:10.707Z,16.90
2022-10-22T06:36:38.327Z,16.80
2022-10-22T06:39:05.569Z,16.80
2022-10-22T06:41:32.517Z,16.80
2022-10-22T06:44:00.171Z,16.80
2022-10-22T06:46:27.155Z,16.80
2022-10-22T06:49:00.961Z,16.80
2022-10-22T06:51:28.258Z,16.80
2022-10-22T06:53:57.198Z,16.80
2022-10-22T06:56:26.969Z,16.80
2022-10-22T06:58:55.701Z,16.80
2022-10-22T07:01:25.218Z,16.80
2022-10-22T07:03:52.977Z,16.80
2022-10-22T07:06:20.253Z,16.80
2022-10-22T07:08:47.341Z,16.70
2022-10-22T07:11:15.409Z,16.70
2022-10-22T07:13:42.535Z,16.70
2022-10-22T07:16:09.870Z,16.70
2022-10-22T07:18:38.572Z,16.80
2022-10-22T07:21:07.083Z,16.80
2022-10-22T07:23:33.964Z,16.80
2022-10-22T07:26:02.857Z,16.90
2022-10-22T07:28:30.742Z,16.90
2022-10-22T07:30:58.284Z,16.90
2022-10-22T07:33:25.371Z,16.90
2022-10-22T07:35:57.422Z,16.90
2022-10-22T07:38:24.248Z,16.90
2022-10-22T07:40:51.104Z,16.90
2022-10-22T07:43:17.904Z,17.00
2022-10-22T07:45:45.417Z,17.00
2022-10-22T07:48:12.423Z,16.90
2022-10-22T07:50:39.350Z,16.90
2022-10-22T07:53:06.221Z,16.90
2022-10-22T07:55:34.117Z,16.90
2022-10-22T07:58:01.247Z,16.90
2022-10-22T08:00:28.181Z,16.90
2022-10-22T08:02:54.955Z,17.00
2022-10-22T08:05:22.045Z,17.00
2022-10-22T08:07:48.883Z,17.00
2022-10-22T08:10:15.683Z,17.00
2022-10-22T08:12:42.871Z,17.10
2022-10-22T08:15:10.358Z,17.10
2022-10-22T08:17:37.250Z,17.10
2022-10-22T08:20:04.685Z,17.20
2022-10-22T08:22:31.560Z,17.30
2022-10-22T08:24:59.191Z,17.30
2022-10-22T08:27:26.468Z,17.30
2022-10-22T08:29:53.339Z,17.40
2022-10-22T08:32:23.066Z,17.40
2022-10-22T08:34:50.120Z,17.40
2022-10-22T08:37:17.845Z,17.40
2022-10-22T08:39:45.196Z,17.50
2022-10-22T08:42:36.493Z,17.50
2022-10-22T08:45:14.731Z,17.50
2022-10-22T08:47:50.370Z,17.50
2022-10-22T08:50:19.581Z,17.60
2022-10-22T08:52:51.275Z,17.60
2022-10-22T08:55:24.952Z,17.60
2022-10-22T08:58:22.196Z,17.70
2022-10-22T09:01:05.209Z,17.70
2022-10-22T09:03:52.852Z,17.70
2022-10-22T09:06:22.145Z,17.70
2022-10-22T09:08:49.239Z,17.80
2022-10-22T09:11:22.890Z,17.80
2022-10-22T09:13:50.320Z,17.80
2022-10-22T09:16:41.047Z,17.90
2022-10-22T09:19:23.043Z,17.90
2022-10-22T09:22:03.558Z,18.00
2022-10-22T09:24:39.302Z,18.00
2022-10-22T09:27:18.293Z,18.10
2022-10-22T09:29:47.341Z,18.10
2022-10-22T09:32:16.557Z,18.10
2022-10-22T09:34:47.692Z,18.10
2022-10-22T09:37:18.795Z,18.20
2022-10-22T09:39:50.998Z,18.20
2022-10-22T09:42:20.036Z,18.20
2022-10-22T09:44:59.951Z,18.20
2022-10-22T09:48:01.567Z,18.30
2022-10-22T09:50:57.396Z,18.30
2022-10-22T09:53:30.065Z,18.30
2022-10-22T09:56:17.354Z,18.40
2022-10-22T09:58:46.288Z,18.30
2022-10-22T10:01:32.854Z,18.40
2022-10-22T10:04:11.422Z,18.40
2022-10-22T10:06:40.569Z,18.40
2022-10-22T10:09:18.438Z,18.40
2022-10-22T10:12:01.712Z,18.40
2022-10-22T10:14:53.680Z,18.40
2022-10-22T10:17:44.157Z,18.40
2022-10-22T10:20:22.427Z,18.40
2022-10-22T10:23:24.538Z,18.40
2022-10-22T10:26:23.393Z,18.50
2022-10-22T10:28:59.195Z,18.50
2022-10-22T10:31:36.484Z,18.50
2022-10-22T10:34:35.043Z,18.50
2022-10-22T10:37:16.119Z,18.50
2022-10-22T10:40:03.947Z,18.50
2022-10-22T10:42:53.893Z,18.50
2022-10-22T10:45:27.916Z,18.50
2022-10-22T10:47:54.661Z,18.60
2022-10-22T10:50:36.241Z,18.60
2022-10-22T10:53:17.659Z,18.60
2022-10-22T10:56:14.783Z,18.60
2022-10-22T10:59:20.773Z,18.60
2022-10-22T11:02:00.045Z,18.70
2022-10-22T11:04:47.969Z,18.70
2022-10-22T11:07:30.331Z,18.70
2022-10-22T11:10:04.553Z,18.70
2022-10-22T11:12:36.541Z,18.70
2022-10-22T11:15:37.697Z,18.70
2022-10-22T11:18:28.389Z,18.80
2022-10-22T11:21:33.176Z,18.80
2022-10-22T11:24:26.993Z,18.90
2022-10-22T11:27:01.096Z,18.90
2022-10-22T11:29:34.038Z,18.90
2022-10-22T11:32:02.968Z,18.90
2022-10-22T11:34:48.906Z,19.00
2022-10-22T11:37:16.649Z,19.00
2022-10-22T11:39:52.310Z,19.00
2022-10-22T11:42:22.350Z,19.00
2022-10-22T11:44:58.615Z,19.00
2022-10-22T11:47:28.327Z,19.00
2022-10-22T11:50:16.546Z,19.00
2022-10-22T11:53:01.761Z,19.00
2022-10-22T11:55:46.083Z,19.00
2022-10-22T11:58:32.623Z,19.00
2022-10-22T12:01:02.388Z,19.10
2022-10-22T12:03:32.279Z,19.10
2022-10-22T12:06:05.150Z,19.10
2022-10-22T12:08:33.422Z,19.10
2022-10-22T12:11:12.207Z,19.20
2022-10-22T12:14:15.608Z,19.30
2022-10-22T12:16:57.670Z,19.30
2022-10-22T12:19:32.629Z,19.30
2022-10-22T12:22:06.613Z,19.30
2022-10-22T12:24:46.221Z,19.20
2022-10-22T12:27:24.347Z,19.30
2022-10-22T12:29:58.682Z,19.20
2022-10-22T12:32:41.442Z,19.20
2022-10-22T12:35:20.516Z,19.20
2022-10-22T12:37:56.403Z,19.30
2022-10-22T12:40:28.851Z,19.30
2022-10-22T12:45:59.061Z,19.30
2022-10-22T12:48:30.878Z,19.30
2022-10-22T12:51:02.475Z,19.40
2022-10-22T12:53:35.016Z,19.40
2022-10-22T12:56:07.308Z,19.40
2022-10-22T12:59:02.712Z,19.40
2022-10-22T13:01:36.163Z,19.50
2022-10-22T13:04:05.516Z,19.50
2022-10-22T13:06:35.973Z,19.50
2022-10-22T13:09:16.460Z,19.50
2022-10-22T13:12:04.776Z,19.50
2022-10-22T13:14:38.173Z,19.50
2022-10-22T13:17:16.083Z,19.60
2022-10-22T13:19:44.773Z,19.60
2022-10-22T13:22:32.428Z,19.60
2022-10-22T13:25:19.521Z,19.60
2022-10-22T13:27:48.265Z,19.60
2022-10-22T13:30:34.317Z,19.60
2022-10-22T13:33:28.466Z,19.60
2022-10-22T13:35:57.105Z,19.60
2022-10-22T13:38:26.015Z,19.60
2022-10-22T13:40:52.884Z,19.60
2022-10-22T13:43:20.542Z,19.60
2022-10-22T13:45:51.016Z,19.60
2022-10-22T13:48:22.001Z,19.60
2022-10-22T13:50:50.502Z,19.60
2022-10-22T13:53:26.159Z,19.60
2022-10-22T13:55:53.282Z,19.60
2022-10-22T13:58:24.628Z,19.60
2022-10-22T14:00:57.559Z,19.60
2022-10-22T14:03:31.853Z,19.70
2022-10-22T14:05:58.811Z,19.70
2022-10-22T14:08:27.065Z,19.70
2022-10-22T14:10:54.416Z,19.70
2022-10-22T14:13:21.774Z,19.60
2022-10-22T14:15:51.008Z,19.60
2022-10-22T14:18:26.440Z,19.60
2022-10-22T14:20:56.189Z,19.60
2022-10-22T14:23:26.841Z,19.50
2022-10-22T14:25:54.098Z,19.50
2022-10-22T14:28:20.961Z,19.50
2022-10-22T14:30:48.346Z,19.50
2022-10-22T14:33:18.654Z,19.50
2022-10-22T14:35:46.096Z,19.60
2022-10-22T14:38:12.969Z,19.60
2022-10-22T14:40:41.899Z,19.60
2022-10-22T14:43:29.089Z,19.60
2022-10-22T14:45:55.921Z,19.70
2022-10-22T14:48:22.768Z,19.70
2022-10-22T14:50:49.988Z,19.70
2022-10-22T14:53:17.107Z,19.70
2022-10-22T14:55:47.210Z,19.70
2022-10-22T14:58:14.265Z,19.70
2022-10-22T15:00:42.783Z,19.70
2022-10-22T15:03:10.530Z,19.70
2022-10-22T15:05:44.382Z,19.70
2022-10-22T15:08:12.772Z,19.80
2022-10-22T15:10:40.263Z,19.80
2022-10-22T15:13:07.181Z,19.80
2022-10-22T15:15:39.270Z,19.80
2022-10-22T15:18:07.009Z,19.80
2022-10-22T15:20:33.844Z,19.80
2022-10-22T15:23:00.687Z,19.80
2022-10-22T15:25:27.609Z,19.80
2022-10-22T15:27:58.507Z,19.80
2022-10-22T15:30:31.732Z,19.70
2022-10-22T15:32:58.532Z,19.70
2022-10-22T15:35:28.696Z,19.80
2022-10-22T15:37:55.548Z,19.70
2022-10-22T15:40:22.427Z,19.70
2022-10-22T15:42:49.318Z,19.60
2022-10-22T15:45:16.252Z,19.60
2022-10-22T15:47:48.608Z,19.60
2022-10-22T15:50:16.009Z,19.70
2022-10-22T15:52:42.869Z,19.70
2022-10-22T15:55:10.739Z,19.70
2022-10-22T15:57:38.545Z,19.70
2022-10-22T16:00:07.150Z,19.70
2022-10-22T16:02:34.000Z,19.70
2022-10-22T16:05:00.834Z,19.70
2022-10-22T16:07:27.632Z,19.70
2022-10-22T16:09:58.665Z,19.60
2022-10-22T16:12:25.779Z,19.60
2022-10-22T16:14:52.764Z,19.60
2022-10-22T16:17:19.612Z,19.60
2022-10-22T16:19:48.259Z,19.60
2022-10-22T16:22:15.812Z,19.50
2022-10-22T16:24:43.001Z,19.50
2022-10-22T16:27:10.289Z,19.50
2022-10-22T16:29:39.151Z,19.50
2022-10-22T16:32:06.193Z,19.40
2022-10-22T16:34:33.011Z,19.40
2022-10-22T16:36:59.860Z,19.40
2022-10-22T16:39:26.673Z,19.30
2022-10-22T16:41:53.479Z,19.30
2022-10-22T16:44:20.263Z,19.30
2022-10-22T16:46:47.096Z,19.30
2022-10-22T16:49:13.897Z,19.30
2022-10-22T16:51:40.740Z,19.30
2022-10-22T16:54:11.303Z,19.20
2022-10-22T16:56:39.904Z,19.10
2022-10-22T16:59:07.365Z,19.10
2022-10-22T17:01:39.462Z,19.00
2022-10-22T17:04:07.391Z,19.00
2022-10-22T17:06:34.278Z,19.00
2022-10-22T17:09:01.278Z,18.90
2022-10-22T17:11:34.684Z,18.90
2022-10-22T17:14:02.206Z,18.90
2022-10-22T17:16:29.648Z,18.90
2022-10-22T17:18:57.815Z,18.90
2022-10-22T17:21:25.288Z,18.90
2022-10-22T17:23:58.609Z,19.00
2022-10-22T17:26:27.030Z,19.00
2022-10-22T17:28:54.808Z,19.00
2022-10-22T17:31:27.577Z,19.00
2022-10-22T17:33:55.733Z,18.90
2022-10-22T17:36:24.139Z,18.90
2022-10-22T17:38:54.048Z,18.80
2022-10-22T17:41:39.038Z,18.80
2022-10-22T17:44:09.299Z,18.80
2022-10-22T17:46:36.507Z,18.70
2022-10-22T17:49:07.041Z,18.70
2022-10-22T17:51:33.979Z,18.70
2022-10-22T17:54:02.481Z,18.70
2022-10-22T17:56:31.615Z,18.70
2022-10-22T17:59:00.006Z,18.70
2022-10-22T18:01:31.976Z,18.60
2022-10-22T18:04:01.138Z,18.70
2022-10-22T18:06:29.041Z,18.70
2022-10-22T18:08:56.152Z,18.70
2022-10-22T18:11:25.854Z,18.70
2022-10-22T18:13:54.947Z,18.70
2022-10-22T18:16:21.951Z,18.70
2022-10-22T18:18:51.023Z,18.70
2022-10-22T18:21:19.069Z,18.70
2022-10-22T18:23:46.594Z,18.70
2022-10-22T18:26:14.227Z,18.70
2022-10-22T18:28:41.093Z,18.70
2022-10-22T18:31:10.437Z,18.80
2022-10-22T18:33:37.936Z,18.80
2022-10-22T18:36:10.481Z,18.80
2022-10-22T18:38:40.790Z,18.80
2022-10-22T18:41:09.472Z,18.80
2022-10-22T18:43:37.173Z,18.80
2022-10-22T18:46:06.548Z,18.80
2022-10-22T18:48:34.875Z,18.80
2022-10-22T18:51:04.929Z,18.80
2022-10-22T18:53:31.770Z,18.80
2022-10-22T18:55:58.620Z,18.80
2022-10-22T18:58:25.422Z,18.80
2022-10-22T19:00:52.570Z,18.70
2022-10-22T19:03:19.426Z,18.70
2022-10-22T19:05:48.808Z,18.60
2022-10-22T19:08:19.181Z,18.60
2022-10-22T19:10:46.940Z,18.60
2022-10-22T19:13:15.876Z,18.50
2022-10-22T19:15:42.784Z,18.50
2022-10-22T19:18:10.303Z,18.40
2022-10-22T19:20:37.679Z,18.40
2022-10-22T19:23:04.831Z,18.40
2022-10-22T19:25:31.880Z,18.40
2022-10-22T19:27:58.746Z,18.40
2022-10-22T19:30:25.669Z,18.30
2022-10-22T19:32:52.504Z,18.30
2022-10-22T19:35:19.296Z,18.30
2022-10-22T19:37:48.350Z,18.30
2022-10-22T19:40:15.644Z,18.20
2022-10-22T19:42:44.525Z,18.20
2022-10-22T19:45:11.708Z,18.20
2022-10-22T19:47:38.722Z,18.20
2022-10-22T19:50:06.031Z,18.10
2022-10-22T19:52:33.670Z,18.10
2022-10-22T19:55:00.511Z,18.10
2022-10-22T19:57:27.321Z,18.10
2022-10-22T19:59:54.124Z,18.00
2022-10-22T20:02:20.940Z,18.10
2022-10-22T20:04:49.888Z,18.10
2022-10-22T20:07:17.522Z,18.10
2022-10-22T20:09:44.365Z,18.00
2022-10-22T20:12:11.245Z,18.00
2022-10-22T20:14:38.118Z,18.00
2022-10-22T20:17:05.016Z,18.00
2022-10-22T20:19:32.584Z,18.00
2022-10-22T20:24:46.144Z,18.00
2022-10-22T20:27:13.835Z,17.90
2022-10-22T20:29:40.695Z,17.90
2022-10-22T20:32:08.898Z,17.90
2022-10-22T20:34:35.855Z,17.90
2022-10-22T20:37:02.735Z,17.90
2022-10-22T20:39:29.574Z,17.80
2022-10-22T20:41:56.391Z,17.80
2022-10-22T20:44:23.189Z,17.80
2022-10-22T20:46:51.729Z,17.80
2022-10-22T20:49:20.951Z,17.80
2022-10-22T20:51:47.871Z,17.80
2022-10-22T20:54:15.496Z,17.80
2022-10-22T20:56:42.834Z,17.80
2022-10-22T20:59:12.462Z,17.80
2022-10-22T21:01:46.450Z,17.80
2022-10-22T21:04:13.861Z,17.80
2022-10-22T21:06:43.004Z,17.80
2022-10-22T21:09:11.849Z,17.80
2022-10-22T21:11:40.108Z,17.80
2022-10-22T21:14:08.231Z,17.80
2022-10-22T21:16:35.927Z,17.80
2022-10-22T21:19:02.940Z,17.80
2022-10-22T21:21:29.744Z,17.90
2022-10-22T21:23:56.558Z,17.80
2022-10-22T21:26:23.369Z,17.80
2022-10-22T21:28:50.240Z,17.80
2022-10-22T21:31:26.123Z,17.80
2022-10-22T21:33:54.281Z,17.90
2022-10-22T21:36:23.144Z,17.80
2022-10-22T21:38:52.170Z,17.80
2022-10-22T21:41:21.352Z,17.90
2022-10-22T21:43:48.591Z,17.80
2022-10-22T21:46:18.449Z,17.80
2022-10-22T21:48:46.080Z,17.80
2022-10-22T21:51:18.527Z,17.80
2022-10-22T21:53:46.254Z,17.80
2022-10-22T21:56:22.381Z,17.80
2022-10-22T21:58:49.263Z,17.80
2022-10-22T22:01:16.984Z,17.80
2022-10-22T22:03:49.373Z,17.80
2022-10-22T22:06:21.190Z,17.80
2022-10-22T22:08:49.481Z,17.80
2022-10-22T22:11:18.938Z,17.80
2022-10-22T22:13:46.292Z,17.70
2022-10-22T22:16:16.244Z,17.70
2022-10-22T22:18:43.123Z,17.70
2022-10-22T22:21:16.331Z,17.70
2022-10-22T22:23:45.731Z,17.70
2022-10-22T22:26:14.852Z,17.70
2022-10-22T22:28:42.057Z,17.70
2022-10-22T22:31:25.281Z,17.70
2022-10-22T22:34:03.088Z,17.70
2022-10-22T22:36:34.039Z,17.70
2022-10-22T22:39:00.907Z,17.70
2022-10-22T22:41:27.683Z,17.70
2022-10-22T22:46:22.285Z,17.70
2022-10-22T22:48:49.985Z,17.70
2022-10-22T22:51:17.223Z,17.70
2022-10-22T22:53:44.329Z,17.70
2022-10-22T22:56:12.900Z,17.70
2022-10-22T22:58:40.850Z,17.70
2022-10-22T23:01:22.332Z,17.70
2022-10-22T23:03:54.548Z,17.70
2022-10-22T23:06:22.776Z,17.70
2022-10-22T23:08:52.135Z,17.80
2022-10-22T23:11:20.279Z,17.80
2022-10-22T23:13:48.140Z,17.80
2022-10-22T23:16:18.462Z,17.80
2022-10-22T23:18:46.684Z,17.80
2022-10-22T23:21:22.798Z,17.90
2022-10-22T23:23:52.813Z,17.80
2022-10-22T23:26:25.671Z,17.80
2022-10-22T23:28:52.568Z,17.80
2022-10-22T23:31:21.687Z,17.80
2022-10-22T23:33:48.853Z,17.80
2022-10-22T23:36:15.923Z,17.90
2022-10-22T23:38:43.272Z,17.90
2022-10-22T23:41:10.084Z,17.90
2022-10-22T23:43:37.934Z,17.80
2022-10-22T23:46:07.324Z,17.80
2022-10-22T23:48:35.014Z,17.90
2022-10-22T23:51:09.863Z,17.80
2022-10-22T23:53:36.729Z,17.80
2022-10-22T23:56:05.837Z,17.80
2022-10-22T23:58:34.030Z,17.80
